<?xml version="1.0" encoding="UTF-8" standalone="no" ?>
<gpx xmlns="http://www.topografix.com/GPX/1/1" xmlns:xsi="http://www.w3.org/2001/XMLSchema-instance" xsi:schemaLocation="http://www.topografix.com/GPX/1/1 http://www.topografix.com/GPX/1/1/gpx.xsd" version="1.1" creator="VisuGPX - https://www.visugpx.com">
  <metadata>
    <name>ST FELICIEN VAUDEVANT</name>
  </metadata>
  <trk>
    <name><![CDATA[ST FELICIEN VAUDEVANT_1]]></name>
    <trkseg>
      <trkpt lat="45.08682" lon="4.62758">
        <ele>543</ele>
        <time>2021-09-10T14:04:46+02:00</time>
      </trkpt>
      <trkpt lat="45.08661" lon="4.62739">
        <ele>545</ele>
        <time>2021-09-10T14:05:15+02:00</time>
      </trkpt>
      <trkpt lat="45.08652" lon="4.62769">
        <ele>544</ele>
        <time>2021-09-10T14:06:06+02:00</time>
      </trkpt>
      <trkpt lat="45.08656" lon="4.62803">
        <ele>542</ele>
        <time>2021-09-10T14:06:09+02:00</time>
      </trkpt>
      <trkpt lat="45.08675" lon="4.62566">
        <ele>557</ele>
        <time>2021-09-10T14:09:17+02:00</time>
      </trkpt>
      <trkpt lat="45.08684" lon="4.62536">
        <ele>561</ele>
        <time>2021-09-10T14:09:20+02:00</time>
      </trkpt>
      <trkpt lat="45.08696" lon="4.62508">
        <ele>564</ele>
        <time>2021-09-10T14:09:53+02:00</time>
      </trkpt>
      <trkpt lat="45.08707" lon="4.62479">
        <ele>567</ele>
        <time>2021-09-10T14:10:27+02:00</time>
      </trkpt>
      <trkpt lat="45.08711" lon="4.62447">
        <ele>570</ele>
        <time>2021-09-10T14:10:50+02:00</time>
      </trkpt>
      <trkpt lat="45.08716" lon="4.62415">
        <ele>574</ele>
        <time>2021-09-10T14:11:18+02:00</time>
      </trkpt>
      <trkpt lat="45.08734" lon="4.62392">
        <ele>577</ele>
        <time>2021-09-10T14:11:38+02:00</time>
      </trkpt>
      <trkpt lat="45.08744" lon="4.62364">
        <ele>581</ele>
        <time>2021-09-10T14:11:58+02:00</time>
      </trkpt>
      <trkpt lat="45.08757" lon="4.62337">
        <ele>586</ele>
        <time>2021-09-10T14:12:26+02:00</time>
      </trkpt>
      <trkpt lat="45.08779" lon="4.62348">
        <ele>587</ele>
        <time>2021-09-10T14:12:48+02:00</time>
      </trkpt>
      <trkpt lat="45.08795" lon="4.62372">
        <ele>585</ele>
        <time>2021-09-10T14:13:07+02:00</time>
      </trkpt>
      <trkpt lat="45.08815" lon="4.62384">
        <ele>587</ele>
        <time>2021-09-10T14:13:47+02:00</time>
      </trkpt>
      <trkpt lat="45.08837" lon="4.62375">
        <ele>591</ele>
        <time>2021-09-10T14:14:14+02:00</time>
      </trkpt>
      <trkpt lat="45.08852" lon="4.62402">
        <ele>594</ele>
        <time>2021-09-10T14:14:33+02:00</time>
      </trkpt>
      <trkpt lat="45.0887" lon="4.6242">
        <ele>600</ele>
        <time>2021-09-10T14:16:11+02:00</time>
      </trkpt>
      <trkpt lat="45.08882" lon="4.62447">
        <ele>603</ele>
        <time>2021-09-10T14:16:32+02:00</time>
      </trkpt>
      <trkpt lat="45.08895" lon="4.62474">
        <ele>606</ele>
        <time>2021-09-10T14:16:57+02:00</time>
      </trkpt>
      <trkpt lat="45.08898" lon="4.62506">
        <ele>606</ele>
        <time>2021-09-10T14:17:53+02:00</time>
      </trkpt>
      <trkpt lat="45.08884" lon="4.62532">
        <ele>600</ele>
        <time>2021-09-10T14:18:12+02:00</time>
      </trkpt>
      <trkpt lat="45.0887" lon="4.62559">
        <ele>595</ele>
        <time>2021-09-10T14:18:29+02:00</time>
      </trkpt>
      <trkpt lat="45.08875" lon="4.62591">
        <ele>596</ele>
        <time>2021-09-10T14:19:00+02:00</time>
      </trkpt>
      <trkpt lat="45.08906" lon="4.62586">
        <ele>610</ele>
        <time>2021-09-10T14:22:55+02:00</time>
      </trkpt>
      <trkpt lat="45.08928" lon="4.62571">
        <ele>618</ele>
        <time>2021-09-10T14:23:08+02:00</time>
      </trkpt>
      <trkpt lat="45.08902" lon="4.62565">
        <ele>608</ele>
        <time>2021-09-10T14:23:39+02:00</time>
      </trkpt>
      <trkpt lat="45.08942" lon="4.62669">
        <ele>607</ele>
        <time>2021-09-10T14:25:43+02:00</time>
      </trkpt>
      <trkpt lat="45.08925" lon="4.62691">
        <ele>598</ele>
        <time>2021-09-10T14:25:44+02:00</time>
      </trkpt>
      <trkpt lat="45.08909" lon="4.62664">
        <ele>600</ele>
        <time>2021-09-10T14:26:03+02:00</time>
      </trkpt>
      <trkpt lat="45.08923" lon="4.62635">
        <ele>609</ele>
        <time>2021-09-10T14:26:09+02:00</time>
      </trkpt>
      <trkpt lat="45.08938" lon="4.6267">
        <ele>606</ele>
        <time>2021-09-10T14:26:15+02:00</time>
      </trkpt>
      <trkpt lat="45.0896" lon="4.62695">
        <ele>603</ele>
        <time>2021-09-10T14:26:21+02:00</time>
      </trkpt>
      <trkpt lat="45.08983" lon="4.6271">
        <ele>602</ele>
        <time>2021-09-10T14:26:30+02:00</time>
      </trkpt>
      <trkpt lat="45.08985" lon="4.62742">
        <ele>592</ele>
        <time>2021-09-10T14:26:39+02:00</time>
      </trkpt>
      <trkpt lat="45.09006" lon="4.62762">
        <ele>588</ele>
        <time>2021-09-10T14:26:45+02:00</time>
      </trkpt>
      <trkpt lat="45.09026" lon="4.62741">
        <ele>597</ele>
        <time>2021-09-10T14:27:05+02:00</time>
      </trkpt>
      <trkpt lat="45.09048" lon="4.62732">
        <ele>602</ele>
        <time>2021-09-10T14:27:19+02:00</time>
      </trkpt>
      <trkpt lat="45.09058" lon="4.62763">
        <ele>595</ele>
        <time>2021-09-10T14:27:50+02:00</time>
      </trkpt>
      <trkpt lat="45.09063" lon="4.62802">
        <ele>586</ele>
        <time>2021-09-10T14:27:57+02:00</time>
      </trkpt>
      <trkpt lat="45.0907" lon="4.62768">
        <ele>595</ele>
        <time>2021-09-10T14:28:05+02:00</time>
      </trkpt>
      <trkpt lat="45.09069" lon="4.62804">
        <ele>586</ele>
        <time>2021-09-10T14:28:47+02:00</time>
      </trkpt>
      <trkpt lat="45.09082" lon="4.62837">
        <ele>580</ele>
        <time>2021-09-10T14:28:56+02:00</time>
      </trkpt>
      <trkpt lat="45.091" lon="4.62817">
        <ele>585</ele>
        <time>2021-09-10T14:29:21+02:00</time>
      </trkpt>
      <trkpt lat="45.09106" lon="4.62783">
        <ele>593</ele>
        <time>2021-09-10T14:29:31+02:00</time>
      </trkpt>
      <trkpt lat="45.09115" lon="4.62753">
        <ele>600</ele>
        <time>2021-09-10T14:29:40+02:00</time>
      </trkpt>
      <trkpt lat="45.09111" lon="4.62792">
        <ele>591</ele>
        <time>2021-09-10T14:29:46+02:00</time>
      </trkpt>
      <trkpt lat="45.09134" lon="4.62799">
        <ele>589</ele>
        <time>2021-09-10T14:30:24+02:00</time>
      </trkpt>
      <trkpt lat="45.09154" lon="4.62814">
        <ele>586</ele>
        <time>2021-09-10T14:30:40+02:00</time>
      </trkpt>
      <trkpt lat="45.09177" lon="4.62811">
        <ele>586</ele>
        <time>2021-09-10T14:30:58+02:00</time>
      </trkpt>
      <trkpt lat="45.092" lon="4.62817">
        <ele>584</ele>
        <time>2021-09-10T14:31:21+02:00</time>
      </trkpt>
      <trkpt lat="45.09218" lon="4.62837">
        <ele>581</ele>
        <time>2021-09-10T14:32:04+02:00</time>
      </trkpt>
      <trkpt lat="45.09236" lon="4.62856">
        <ele>579</ele>
        <time>2021-09-10T14:32:22+02:00</time>
      </trkpt>
      <trkpt lat="45.09259" lon="4.62859">
        <ele>578</ele>
        <time>2021-09-10T14:32:35+02:00</time>
      </trkpt>
      <trkpt lat="45.09277" lon="4.62881">
        <ele>574</ele>
        <time>2021-09-10T14:32:47+02:00</time>
      </trkpt>
      <trkpt lat="45.09285" lon="4.62846">
        <ele>577</ele>
        <time>2021-09-10T14:33:00+02:00</time>
      </trkpt>
      <trkpt lat="45.09281" lon="4.6281">
        <ele>579</ele>
        <time>2021-09-10T14:33:13+02:00</time>
      </trkpt>
      <trkpt lat="45.09282" lon="4.62777">
        <ele>580</ele>
        <time>2021-09-10T14:33:21+02:00</time>
      </trkpt>
      <trkpt lat="45.09305" lon="4.62768">
        <ele>577</ele>
        <time>2021-09-10T14:34:18+02:00</time>
      </trkpt>
      <trkpt lat="45.09328" lon="4.6277">
        <ele>574</ele>
        <time>2021-09-10T14:34:26+02:00</time>
      </trkpt>
      <trkpt lat="45.09311" lon="4.62797">
        <ele>576</ele>
        <time>2021-09-10T14:34:46+02:00</time>
      </trkpt>
      <trkpt lat="45.09288" lon="4.62792">
        <ele>579</ele>
        <time>2021-09-10T14:34:51+02:00</time>
      </trkpt>
      <trkpt lat="45.09314" lon="4.62798">
        <ele>575</ele>
        <time>2021-09-10T14:35:10+02:00</time>
      </trkpt>
      <trkpt lat="45.09337" lon="4.62788">
        <ele>573</ele>
        <time>2021-09-10T14:35:39+02:00</time>
      </trkpt>
      <trkpt lat="45.09342" lon="4.6283">
        <ele>571</ele>
        <time>2021-09-10T14:38:06+02:00</time>
      </trkpt>
      <trkpt lat="45.09348" lon="4.62864">
        <ele>566</ele>
        <time>2021-09-10T14:38:11+02:00</time>
      </trkpt>
      <trkpt lat="45.09373" lon="4.62862">
        <ele>561</ele>
        <time>2021-09-10T14:38:20+02:00</time>
      </trkpt>
      <trkpt lat="45.09369" lon="4.62895">
        <ele>558</ele>
        <time>2021-09-10T14:39:07+02:00</time>
      </trkpt>
      <trkpt lat="45.09363" lon="4.62928">
        <ele>556</ele>
        <time>2021-09-10T14:39:28+02:00</time>
      </trkpt>
      <trkpt lat="45.09366" lon="4.62959">
        <ele>554</ele>
        <time>2021-09-10T14:39:45+02:00</time>
      </trkpt>
      <trkpt lat="45.09386" lon="4.62975">
        <ele>550</ele>
        <time>2021-09-10T14:41:12+02:00</time>
      </trkpt>
      <trkpt lat="45.09406" lon="4.62998">
        <ele>547</ele>
        <time>2021-09-10T14:42:16+02:00</time>
      </trkpt>
      <trkpt lat="45.09423" lon="4.63023">
        <ele>543</ele>
        <time>2021-09-10T14:42:21+02:00</time>
      </trkpt>
      <trkpt lat="45.09443" lon="4.63045">
        <ele>539</ele>
        <time>2021-09-10T14:42:30+02:00</time>
      </trkpt>
      <trkpt lat="45.09456" lon="4.63018">
        <ele>542</ele>
        <time>2021-09-10T14:42:40+02:00</time>
      </trkpt>
      <trkpt lat="45.09461" lon="4.62987">
        <ele>545</ele>
        <time>2021-09-10T14:42:47+02:00</time>
      </trkpt>
      <trkpt lat="45.09444" lon="4.62966">
        <ele>546</ele>
        <time>2021-09-10T14:42:51+02:00</time>
      </trkpt>
      <trkpt lat="45.09423" lon="4.62947">
        <ele>546</ele>
        <time>2021-09-10T14:42:55+02:00</time>
      </trkpt>
      <trkpt lat="45.09446" lon="4.62948">
        <ele>548</ele>
        <time>2021-09-10T14:43:28+02:00</time>
      </trkpt>
      <trkpt lat="45.09462" lon="4.62973">
        <ele>546</ele>
        <time>2021-09-10T14:43:47+02:00</time>
      </trkpt>
      <trkpt lat="45.09474" lon="4.63">
        <ele>544</ele>
        <time>2021-09-10T14:43:59+02:00</time>
      </trkpt>
      <trkpt lat="45.09496" lon="4.63009">
        <ele>542</ele>
        <time>2021-09-10T14:44:47+02:00</time>
      </trkpt>
      <trkpt lat="45.09517" lon="4.62997">
        <ele>544</ele>
        <time>2021-09-10T14:44:59+02:00</time>
      </trkpt>
      <trkpt lat="45.09532" lon="4.62974">
        <ele>548</ele>
        <time>2021-09-10T14:45:15+02:00</time>
      </trkpt>
      <trkpt lat="45.09559" lon="4.62988">
        <ele>546</ele>
        <time>2021-09-10T14:45:27+02:00</time>
      </trkpt>
      <trkpt lat="45.09584" lon="4.6298">
        <ele>548</ele>
        <time>2021-09-10T14:45:41+02:00</time>
      </trkpt>
      <trkpt lat="45.09596" lon="4.62949">
        <ele>552</ele>
        <time>2021-09-10T14:46:00+02:00</time>
      </trkpt>
      <trkpt lat="45.09617" lon="4.62964">
        <ele>548</ele>
        <time>2021-09-10T14:46:17+02:00</time>
      </trkpt>
      <trkpt lat="45.09608" lon="4.62934">
        <ele>553</ele>
        <time>2021-09-10T14:46:29+02:00</time>
      </trkpt>
      <trkpt lat="45.0963" lon="4.62936">
        <ele>551</ele>
        <time>2021-09-10T14:46:39+02:00</time>
      </trkpt>
      <trkpt lat="45.09648" lon="4.62915">
        <ele>552</ele>
        <time>2021-09-10T14:47:23+02:00</time>
      </trkpt>
      <trkpt lat="45.09666" lon="4.62895">
        <ele>552</ele>
        <time>2021-09-10T14:47:42+02:00</time>
      </trkpt>
      <trkpt lat="45.09671" lon="4.62863">
        <ele>553</ele>
        <time>2021-09-10T14:48:04+02:00</time>
      </trkpt>
      <trkpt lat="45.09673" lon="4.62831">
        <ele>555</ele>
        <time>2021-09-10T14:48:43+02:00</time>
      </trkpt>
      <trkpt lat="45.0967" lon="4.6278">
        <ele>562</ele>
        <time>2021-09-10T14:49:17+02:00</time>
      </trkpt>
      <trkpt lat="45.09761" lon="4.62532">
        <ele>560</ele>
        <time>2021-09-10T14:52:20+02:00</time>
      </trkpt>
      <trkpt lat="45.09786" lon="4.6253">
        <ele>556</ele>
        <time>2021-09-10T14:52:31+02:00</time>
      </trkpt>
      <trkpt lat="45.09822" lon="4.62533">
        <ele>550</ele>
        <time>2021-09-10T14:53:13+02:00</time>
      </trkpt>
      <trkpt lat="45.09818" lon="4.62501">
        <ele>551</ele>
        <time>2021-09-10T14:53:15+02:00</time>
      </trkpt>
      <trkpt lat="45.09811" lon="4.62469">
        <ele>559</ele>
        <time>2021-09-10T14:53:18+02:00</time>
      </trkpt>
      <trkpt lat="45.09907" lon="4.62351">
        <ele>569</ele>
        <time>2021-09-10T14:55:42+02:00</time>
      </trkpt>
      <trkpt lat="45.09928" lon="4.62362">
        <ele>563</ele>
        <time>2021-09-10T14:55:44+02:00</time>
      </trkpt>
      <trkpt lat="45.09952" lon="4.62356">
        <ele>562</ele>
        <time>2021-09-10T14:56:00+02:00</time>
      </trkpt>
      <trkpt lat="45.09974" lon="4.62345">
        <ele>561</ele>
        <time>2021-09-10T14:56:15+02:00</time>
      </trkpt>
      <trkpt lat="45.09994" lon="4.62331">
        <ele>561</ele>
        <time>2021-09-10T14:56:31+02:00</time>
      </trkpt>
      <trkpt lat="45.10017" lon="4.62326">
        <ele>560</ele>
        <time>2021-09-10T14:56:58+02:00</time>
      </trkpt>
      <trkpt lat="45.10032" lon="4.6235">
        <ele>559</ele>
        <time>2021-09-10T14:57:03+02:00</time>
      </trkpt>
      <trkpt lat="45.10049" lon="4.62378">
        <ele>562</ele>
        <time>2021-09-10T14:57:06+02:00</time>
      </trkpt>
      <trkpt lat="45.1021" lon="4.61997">
        <ele>592</ele>
        <time>2021-09-10T15:02:17+02:00</time>
      </trkpt>
      <trkpt lat="45.10231" lon="4.61984">
        <ele>590</ele>
        <time>2021-09-10T15:02:32+02:00</time>
      </trkpt>
      <trkpt lat="45.10254" lon="4.61998">
        <ele>584</ele>
        <time>2021-09-10T15:02:44+02:00</time>
      </trkpt>
      <trkpt lat="45.10268" lon="4.61971">
        <ele>588</ele>
        <time>2021-09-10T15:03:03+02:00</time>
      </trkpt>
      <trkpt lat="45.10286" lon="4.61951">
        <ele>592</ele>
        <time>2021-09-10T15:03:24+02:00</time>
      </trkpt>
      <trkpt lat="45.1031" lon="4.61942">
        <ele>593</ele>
        <time>2021-09-10T15:03:47+02:00</time>
      </trkpt>
      <trkpt lat="45.10332" lon="4.61933">
        <ele>595</ele>
        <time>2021-09-10T15:04:21+02:00</time>
      </trkpt>
      <trkpt lat="45.10354" lon="4.61933">
        <ele>592</ele>
        <time>2021-09-10T15:04:44+02:00</time>
      </trkpt>
      <trkpt lat="45.10376" lon="4.61923">
        <ele>590</ele>
        <time>2021-09-10T15:05:13+02:00</time>
      </trkpt>
      <trkpt lat="45.10392" lon="4.619">
        <ele>589</ele>
        <time>2021-09-10T15:05:53+02:00</time>
      </trkpt>
      <trkpt lat="45.10382" lon="4.61871">
        <ele>592</ele>
        <time>2021-09-10T15:07:32+02:00</time>
      </trkpt>
      <trkpt lat="45.10361" lon="4.61859">
        <ele>596</ele>
        <time>2021-09-10T15:08:27+02:00</time>
      </trkpt>
      <trkpt lat="45.10357" lon="4.6189">
        <ele>595</ele>
        <time>2021-09-10T15:14:21+02:00</time>
      </trkpt>
      <trkpt lat="45.1032" lon="4.61901">
        <ele>598</ele>
        <time>2021-09-10T15:16:15+02:00</time>
      </trkpt>
      <trkpt lat="45.10339" lon="4.61881">
        <ele>598</ele>
        <time>2021-09-10T15:16:25+02:00</time>
      </trkpt>
      <trkpt lat="45.10327" lon="4.61745">
        <ele>606</ele>
        <time>2021-09-10T15:18:47+02:00</time>
      </trkpt>
      <trkpt lat="45.10314" lon="4.61782">
        <ele>607</ele>
        <time>2021-09-10T15:20:08+02:00</time>
      </trkpt>
      <trkpt lat="45.10324" lon="4.61753">
        <ele>606</ele>
        <time>2021-09-10T15:21:44+02:00</time>
      </trkpt>
      <trkpt lat="45.10304" lon="4.61775">
        <ele>609</ele>
        <time>2021-09-10T15:22:11+02:00</time>
      </trkpt>
      <trkpt lat="45.10283" lon="4.61762">
        <ele>614</ele>
        <time>2021-09-10T15:23:23+02:00</time>
      </trkpt>
      <trkpt lat="45.1026" lon="4.6176">
        <ele>620</ele>
        <time>2021-09-10T15:23:38+02:00</time>
      </trkpt>
      <trkpt lat="45.10244" lon="4.61784">
        <ele>620</ele>
        <time>2021-09-10T15:24:04+02:00</time>
      </trkpt>
      <trkpt lat="45.10149" lon="4.61812">
        <ele>651</ele>
        <time>2021-09-10T15:25:56+02:00</time>
      </trkpt>
      <trkpt lat="45.10163" lon="4.61837">
        <ele>641</ele>
        <time>2021-09-10T15:26:00+02:00</time>
      </trkpt>
      <trkpt lat="45.10017" lon="4.61968">
        <ele>645</ele>
        <time>2021-09-10T15:29:29+02:00</time>
      </trkpt>
      <trkpt lat="45.10037" lon="4.61984">
        <ele>641</ele>
        <time>2021-09-10T15:29:53+02:00</time>
      </trkpt>
      <trkpt lat="45.10059" lon="4.61973">
        <ele>641</ele>
        <time>2021-09-10T15:30:01+02:00</time>
      </trkpt>
      <trkpt lat="45.10083" lon="4.61972">
        <ele>640</ele>
        <time>2021-09-10T15:30:17+02:00</time>
      </trkpt>
      <trkpt lat="45.10229" lon="4.61807">
        <ele>622</ele>
        <time>2021-09-10T15:31:53+02:00</time>
      </trkpt>
      <trkpt lat="45.1025" lon="4.6179">
        <ele>617</ele>
        <time>2021-09-10T15:32:28+02:00</time>
      </trkpt>
      <trkpt lat="45.10266" lon="4.61768">
        <ele>617</ele>
        <time>2021-09-10T15:32:42+02:00</time>
      </trkpt>
      <trkpt lat="45.1029" lon="4.61763">
        <ele>613</ele>
        <time>2021-09-10T15:32:57+02:00</time>
      </trkpt>
      <trkpt lat="45.10312" lon="4.61762">
        <ele>608</ele>
        <time>2021-09-10T15:33:19+02:00</time>
      </trkpt>
      <trkpt lat="45.10289" lon="4.61757">
        <ele>613</ele>
        <time>2021-09-10T15:35:56+02:00</time>
      </trkpt>
      <trkpt lat="45.10267" lon="4.61771">
        <ele>617</ele>
        <time>2021-09-10T15:36:15+02:00</time>
      </trkpt>
      <trkpt lat="45.10245" lon="4.61783">
        <ele>620</ele>
        <time>2021-09-10T15:36:29+02:00</time>
      </trkpt>
      <trkpt lat="45.10041" lon="4.6197">
        <ele>643</ele>
        <time>2021-09-10T15:40:44+02:00</time>
      </trkpt>
      <trkpt lat="45.10018" lon="4.61972">
        <ele>644</ele>
        <time>2021-09-10T15:41:21+02:00</time>
      </trkpt>
      <trkpt lat="45.10011" lon="4.61939">
        <ele>651</ele>
        <time>2021-09-10T15:41:34+02:00</time>
      </trkpt>
      <trkpt lat="45.10031" lon="4.61914">
        <ele>655</ele>
        <time>2021-09-10T15:41:58+02:00</time>
      </trkpt>
      <trkpt lat="45.09835" lon="4.61999">
        <ele>657</ele>
        <time>2021-09-10T15:46:08+02:00</time>
      </trkpt>
      <trkpt lat="45.09809" lon="4.61984">
        <ele>661</ele>
        <time>2021-09-10T15:46:11+02:00</time>
      </trkpt>
      <trkpt lat="45.09798" lon="4.61956">
        <ele>666</ele>
        <time>2021-09-10T15:46:48+02:00</time>
      </trkpt>
      <trkpt lat="45.09794" lon="4.61921">
        <ele>671</ele>
        <time>2021-09-10T15:46:51+02:00</time>
      </trkpt>
      <trkpt lat="45.09772" lon="4.61909">
        <ele>674</ele>
        <time>2021-09-10T15:47:02+02:00</time>
      </trkpt>
      <trkpt lat="45.09749" lon="4.61899">
        <ele>676</ele>
        <time>2021-09-10T15:47:09+02:00</time>
      </trkpt>
      <trkpt lat="45.09727" lon="4.61884">
        <ele>678</ele>
        <time>2021-09-10T15:47:16+02:00</time>
      </trkpt>
      <trkpt lat="45.09717" lon="4.61854">
        <ele>683</ele>
        <time>2021-09-10T15:47:28+02:00</time>
      </trkpt>
      <trkpt lat="45.09713" lon="4.61885">
        <ele>677</ele>
        <time>2021-09-10T15:47:34+02:00</time>
      </trkpt>
      <trkpt lat="45.09692" lon="4.6185">
        <ele>684</ele>
        <time>2021-09-10T15:47:50+02:00</time>
      </trkpt>
      <trkpt lat="45.09676" lon="4.61813">
        <ele>694</ele>
        <time>2021-09-10T15:47:52+02:00</time>
      </trkpt>
      <trkpt lat="45.09691" lon="4.6184">
        <ele>686</ele>
        <time>2021-09-10T15:47:59+02:00</time>
      </trkpt>
      <trkpt lat="45.09744" lon="4.61911">
        <ele>674</ele>
        <time>2021-09-10T15:48:58+02:00</time>
      </trkpt>
      <trkpt lat="45.09721" lon="4.61916">
        <ele>673</ele>
        <time>2021-09-10T15:49:06+02:00</time>
      </trkpt>
      <trkpt lat="45.09698" lon="4.61943">
        <ele>667</ele>
        <time>2021-09-10T15:49:12+02:00</time>
      </trkpt>
      <trkpt lat="45.09717" lon="4.61926">
        <ele>671</ele>
        <time>2021-09-10T15:49:35+02:00</time>
      </trkpt>
      <trkpt lat="45.09694" lon="4.61912">
        <ele>672</ele>
        <time>2021-09-10T15:50:10+02:00</time>
      </trkpt>
      <trkpt lat="45.09672" lon="4.61922">
        <ele>669</ele>
        <time>2021-09-10T15:50:22+02:00</time>
      </trkpt>
      <trkpt lat="45.09651" lon="4.61906">
        <ele>674</ele>
        <time>2021-09-10T15:50:34+02:00</time>
      </trkpt>
      <trkpt lat="45.09628" lon="4.61904">
        <ele>678</ele>
        <time>2021-09-10T15:50:50+02:00</time>
      </trkpt>
      <trkpt lat="45.09605" lon="4.61901">
        <ele>682</ele>
        <time>2021-09-10T15:51:01+02:00</time>
      </trkpt>
      <trkpt lat="45.09586" lon="4.61963">
        <ele>669</ele>
        <time>2021-09-10T15:52:01+02:00</time>
      </trkpt>
      <trkpt lat="45.09563" lon="4.61974">
        <ele>670</ele>
        <time>2021-09-10T15:52:16+02:00</time>
      </trkpt>
      <trkpt lat="45.09495" lon="4.6193">
        <ele>693</ele>
        <time>2021-09-10T15:53:04+02:00</time>
      </trkpt>
      <trkpt lat="45.09518" lon="4.61935">
        <ele>688</ele>
        <time>2021-09-10T15:53:16+02:00</time>
      </trkpt>
      <trkpt lat="45.09392" lon="4.61953">
        <ele>693</ele>
        <time>2021-09-10T15:55:28+02:00</time>
      </trkpt>
      <trkpt lat="45.09405" lon="4.61979">
        <ele>682</ele>
        <time>2021-09-10T15:55:48+02:00</time>
      </trkpt>
      <trkpt lat="45.09374" lon="4.62079">
        <ele>670</ele>
        <time>2021-09-10T15:56:23+02:00</time>
      </trkpt>
      <trkpt lat="45.09373" lon="4.62111">
        <ele>666</ele>
        <time>2021-09-10T15:56:55+02:00</time>
      </trkpt>
      <trkpt lat="45.09199" lon="4.62421">
        <ele>664</ele>
        <time>2021-09-10T16:00:31+02:00</time>
      </trkpt>
      <trkpt lat="45.09173" lon="4.62433">
        <ele>662</ele>
        <time>2021-09-10T16:00:36+02:00</time>
      </trkpt>
      <trkpt lat="45.09155" lon="4.62407">
        <ele>666</ele>
        <time>2021-09-10T16:01:03+02:00</time>
      </trkpt>
      <trkpt lat="45.09135" lon="4.62391">
        <ele>665</ele>
        <time>2021-09-10T16:01:15+02:00</time>
      </trkpt>
      <trkpt lat="45.09113" lon="4.62373">
        <ele>663</ele>
        <time>2021-09-10T16:01:28+02:00</time>
      </trkpt>
      <trkpt lat="45.0909" lon="4.62378">
        <ele>660</ele>
        <time>2021-09-10T16:01:41+02:00</time>
      </trkpt>
      <trkpt lat="45.08973" lon="4.62121">
        <ele>648</ele>
        <time>2021-09-10T16:05:14+02:00</time>
      </trkpt>
      <trkpt lat="45.08992" lon="4.62087">
        <ele>653</ele>
        <time>2021-09-10T16:05:21+02:00</time>
      </trkpt>
      <trkpt lat="45.08967" lon="4.62097">
        <ele>648</ele>
        <time>2021-09-10T16:05:34+02:00</time>
      </trkpt>
      <trkpt lat="45.08945" lon="4.62079">
        <ele>645</ele>
        <time>2021-09-10T16:05:43+02:00</time>
      </trkpt>
      <trkpt lat="45.08868" lon="4.62104">
        <ele>631</ele>
        <time>2021-09-10T16:07:20+02:00</time>
      </trkpt>
      <trkpt lat="45.08846" lon="4.62116">
        <ele>626</ele>
        <time>2021-09-10T16:07:26+02:00</time>
      </trkpt>
      <trkpt lat="45.08831" lon="4.62141">
        <ele>621</ele>
        <time>2021-09-10T16:07:41+02:00</time>
      </trkpt>
      <trkpt lat="45.08809" lon="4.62156">
        <ele>619</ele>
        <time>2021-09-10T16:07:53+02:00</time>
      </trkpt>
      <trkpt lat="45.08829" lon="4.62142">
        <ele>621</ele>
        <time>2021-09-10T16:07:57+02:00</time>
      </trkpt>
      <trkpt lat="45.08807" lon="4.62151">
        <ele>620</ele>
        <time>2021-09-10T16:08:10+02:00</time>
      </trkpt>
      <trkpt lat="45.08788" lon="4.62168">
        <ele>617</ele>
        <time>2021-09-10T16:08:22+02:00</time>
      </trkpt>
      <trkpt lat="45.08787" lon="4.622">
        <ele>612</ele>
        <time>2021-09-10T16:08:43+02:00</time>
      </trkpt>
      <trkpt lat="45.08771" lon="4.62224">
        <ele>607</ele>
        <time>2021-09-10T16:08:59+02:00</time>
      </trkpt>
      <trkpt lat="45.08748" lon="4.62233">
        <ele>604</ele>
        <time>2021-09-10T16:09:14+02:00</time>
      </trkpt>
      <trkpt lat="45.08728" lon="4.62248">
        <ele>601</ele>
        <time>2021-09-10T16:09:39+02:00</time>
      </trkpt>
      <trkpt lat="45.08732" lon="4.6228">
        <ele>595</ele>
        <time>2021-09-10T16:10:05+02:00</time>
      </trkpt>
      <trkpt lat="45.08731" lon="4.62314">
        <ele>589</ele>
        <time>2021-09-10T16:10:24+02:00</time>
      </trkpt>
      <trkpt lat="45.08714" lon="4.62334">
        <ele>585</ele>
        <time>2021-09-10T16:10:41+02:00</time>
      </trkpt>
      <trkpt lat="45.08714" lon="4.62366">
        <ele>581</ele>
        <time>2021-09-10T16:10:50+02:00</time>
      </trkpt>
      <trkpt lat="45.0872" lon="4.62397">
        <ele>576</ele>
        <time>2021-09-10T16:11:02+02:00</time>
      </trkpt>
      <trkpt lat="45.08718" lon="4.62429">
        <ele>572</ele>
        <time>2021-09-10T16:11:20+02:00</time>
      </trkpt>
      <trkpt lat="45.08715" lon="4.62462">
        <ele>569</ele>
        <time>2021-09-10T16:11:36+02:00</time>
      </trkpt>
      <trkpt lat="45.08707" lon="4.62493">
        <ele>566</ele>
        <time>2021-09-10T16:11:52+02:00</time>
      </trkpt>
      <trkpt lat="45.08696" lon="4.62522">
        <ele>562</ele>
        <time>2021-09-10T16:12:08+02:00</time>
      </trkpt>
      <trkpt lat="45.08685" lon="4.62551">
        <ele>559</ele>
        <time>2021-09-10T16:12:24+02:00</time>
      </trkpt>
      <trkpt lat="45.08678" lon="4.62583">
        <ele>555</ele>
        <time>2021-09-10T16:12:38+02:00</time>
      </trkpt>
      <trkpt lat="45.08674" lon="4.62614">
        <ele>552</ele>
        <time>2021-09-10T16:12:55+02:00</time>
      </trkpt>
      <trkpt lat="45.08675" lon="4.62646">
        <ele>549</ele>
        <time>2021-09-10T16:13:39+02:00</time>
      </trkpt>
      <trkpt lat="45.08658" lon="4.62672">
        <ele>548</ele>
        <time>2021-09-10T16:14:01+02:00</time>
      </trkpt>
      <trkpt lat="45.0865" lon="4.62702">
        <ele>547</ele>
        <time>2021-09-10T16:14:12+02:00</time>
      </trkpt>
      <trkpt lat="45.08627" lon="4.62708">
        <ele>546</ele>
        <time>2021-09-10T16:14:57+02:00</time>
      </trkpt>
      <trkpt lat="45.08607" lon="4.62725">
        <ele>546</ele>
        <time>2021-09-10T16:15:00+02:00</time>
      </trkpt>
      <trkpt lat="45.08567" lon="4.62788">
        <ele>539</ele>
        <time>2021-09-10T16:15:53+02:00</time>
      </trkpt>
      <trkpt lat="45.08544" lon="4.62795">
        <ele>535</ele>
        <time>2021-09-10T16:15:56+02:00</time>
      </trkpt>
      <trkpt lat="45.08566" lon="4.62793">
        <ele>539</ele>
        <time>2021-09-10T16:16:15+02:00</time>
      </trkpt>
      <trkpt lat="45.0859" lon="4.62785">
        <ele>543</ele>
        <time>2021-09-10T16:16:28+02:00</time>
      </trkpt>
      <trkpt lat="45.08613" lon="4.62787">
        <ele>543</ele>
        <time>2021-09-10T16:16:34+02:00</time>
      </trkpt>
      <trkpt lat="45.08617" lon="4.62822">
        <ele>540</ele>
        <time>2021-09-10T16:16:45+02:00</time>
      </trkpt>
      <trkpt lat="45.08643" lon="4.62818">
        <ele>541</ele>
        <time>2021-09-10T16:16:58+02:00</time>
      </trkpt>
      <trkpt lat="45.08658" lon="4.62792">
        <ele>543</ele>
        <time>2021-09-10T16:17:52+02:00</time>
      </trkpt>
      <trkpt lat="45.08676" lon="4.62766">
        <ele>543</ele>
        <time>2021-09-10T16:17:59+02:00</time>
      </trkpt>
    </trkseg>
  </trk>
</gpx>